テルアビブ / ベン・グリオン の空港の天気 - METARとTAF

ベン・グリオン国際空港(テルアビブ) ( LLBG / TLV ) - イスラエル ロード / テルアビブ
飛行場実況気象(Metar)
観測時間01/20 19:50 IST (01/20 17:50 UTC)
風向・風速東 2m/s
視程10km以上
天気現象
なし
気温13℃
湿度77%
気圧1021hPa
METARLLBG 201750Z 09004KT CAVOK 13/09 Q1021 NOSIG
過去の天気等 Google飛行場航空写真 Wunderground天気予報

過去48時間のMETAR

飛行場予報(TAF)
発表時間: 1/20 19:09 IST (1/20 17:09 UTC)
予報対象時間: 20日20時 IST ~ 21日20時 IST
風向・風速不定 2m/s
視程10km以上
なし
20日21時 IST ~ 20日23時 IST に徐々に
視程10km以上
全天の4割程度の雲 雲底高度 910m
21日8時 IST ~ 21日10時 IST に徐々に
風向・風速西 4m/s
21日10時 IST から 確率 40% で
天気現象弱い雨
全天の8割程度の雲 雲底高度 910m
TAF LLBG 201709Z 2018/2118 VRB03KT CAVOK
BECMG 2019/2021 9999 SCT030
BECMG 2106/2108 28008KT
PROB40 2108/2118 -RA BKN030 TX17/2112Z TN09/2104Z